Terminal Aerodrome Forecast
Issued by NWS

Home | Current Version | Previous Version | Graphics & Text | Print | Product List | Glossary On
Versions: 1 2 3 4 5 6 7 8 9 10 11 12 13 14 15 16 17 18
856
FTUS43 KMPX 300524
TAFAXN
TAF
KAXN 300524Z 3006/0106 28004KT 2SM -SN BR BKN005 OVC009
     FM300900 33005KT 1SM -SN BR OVC003
     FM301500 35008KT 2SM -SN BR OVC004
     FM301800 34009KT 3SM -RASN BR OVC005
     FM010100 34009KT 5SM BR OVC007=

USA.gov is the U.S. government's official web portal to all federal, state and local government web resources and services.